createdAt,value
2023-04-15T00:00:59.769Z,13.20
2023-04-15T00:03:30.410Z,13.20
2023-04-15T00:05:59.990Z,13.20
2023-04-15T00:08:28.935Z,13.20
2023-04-15T00:10:59.575Z,13.10
2023-04-15T00:13:28.458Z,13.20
2023-04-15T00:15:56.971Z,13.10
2023-04-15T00:18:26.220Z,13.20
2023-04-15T00:20:56.148Z,13.20
2023-04-15T00:23:24.749Z,13.20
2023-04-15T00:25:53.439Z,13.10
2023-04-15T00:28:22.506Z,13.10
2023-04-15T00:30:51.730Z,13.10
2023-04-15T00:33:20.433Z,13.10
2023-04-15T00:35:49.080Z,13.10
2023-04-15T00:38:19.044Z,13.10
2023-04-15T00:40:47.659Z,13.10
2023-04-15T00:43:16.563Z,13.10
2023-04-15T00:45:47.210Z,13.10
2023-04-15T00:48:16.727Z,13.10
2023-04-15T00:50:45.333Z,13.10
2023-04-15T00:53:14.097Z,13.10
2023-04-15T00:55:44.316Z,13.10
2023-04-15T00:58:13.080Z,13.10
2023-04-15T01:00:44.566Z,13.10
2023-04-15T01:03:13.209Z,13.10
2023-04-15T01:05:42.428Z,13.10
2023-04-15T01:08:11.027Z,13.10
2023-04-15T01:10:39.905Z,13.10
2023-04-15T01:13:10.197Z,13.10
2023-04-15T01:15:39.013Z,13.10
2023-04-15T01:18:08.458Z,13.10
2023-04-15T01:20:39.922Z,13.10
2023-04-15T01:23:08.474Z,13.10
2023-04-15T01:25:38.396Z,13.10
2023-04-15T01:28:06.917Z,13.10
2023-04-15T01:30:36.004Z,13.10
2023-04-15T01:33:04.587Z,13.10
2023-04-15T01:35:33.462Z,13.00
2023-04-15T01:38:06.276Z,13.00
2023-04-15T01:40:35.094Z,13.00
2023-04-15T01:43:05.137Z,13.00
2023-04-15T01:45:33.748Z,13.00
2023-04-15T01:48:06.067Z,13.00
2023-04-15T01:50:37.007Z,13.00
2023-04-15T01:53:05.713Z,13.00
2023-04-15T01:55:34.338Z,13.00
2023-04-15T01:58:04.333Z,13.00
2023-04-15T02:00:32.893Z,13.00
2023-04-15T02:03:01.738Z,13.00
2023-04-15T02:05:30.595Z,13.00
2023-04-15T02:07:59.260Z,13.00
2023-04-15T02:10:28.580Z,13.00
2023-04-15T02:12:57.406Z,13.00
2023-04-15T02:15:30.761Z,13.00
2023-04-15T02:18:00.971Z,13.00
2023-04-15T02:20:30.807Z,13.00
2023-04-15T02:23:00.063Z,13.00
2023-04-15T02:25:28.801Z,13.00
2023-04-15T02:27:59.392Z,13.00
2023-04-15T02:30:28.049Z,13.00
2023-04-15T02:32:57.989Z,13.00
2023-04-15T02:35:27.087Z,13.00
2023-04-15T02:37:56.363Z,12.90
2023-04-15T02:40:24.990Z,12.90
2023-04-15T02:42:53.578Z,12.90
2023-04-15T02:45:24.284Z,12.90
2023-04-15T02:47:53.101Z,12.90
2023-04-15T02:50:24.249Z,12.90
2023-04-15T02:52:52.943Z,12.90
2023-04-15T02:55:21.783Z,12.90
2023-04-15T02:57:50.835Z,12.90
2023-04-15T03:00:19.384Z,12.90
2023-04-15T03:02:56.531Z,12.90
2023-04-15T03:05:27.316Z,12.90
2023-04-15T03:07:56.258Z,12.90
2023-04-15T03:10:25.041Z,12.90
2023-04-15T03:12:53.558Z,12.90
2023-04-15T03:15:25.100Z,12.80
2023-04-15T03:17:54.977Z,12.80
2023-04-15T03:20:23.534Z,12.80
2023-04-15T03:22:53.624Z,12.80
2023-04-15T03:25:24.684Z,12.80
2023-04-15T03:27:53.537Z,12.80
2023-04-15T03:30:22.310Z,12.90
2023-04-15T03:32:50.916Z,12.80
2023-04-15T03:35:19.656Z,12.80
2023-04-15T03:37:49.256Z,12.80
2023-04-15T03:40:19.204Z,12.80
2023-04-15T03:42:47.737Z,12.80
2023-04-15T03:45:16.653Z,12.80
2023-04-15T03:47:45.216Z,12.80
2023-04-15T03:50:13.853Z,12.80
2023-04-15T03:52:42.342Z,12.80
2023-04-15T03:55:11.280Z,12.80
2023-04-15T03:57:41.489Z,12.80
2023-04-15T04:00:11.718Z,12.80
2023-04-15T04:02:43.272Z,12.80
2023-04-15T04:05:11.917Z,12.70
2023-04-15T04:07:40.600Z,12.70
2023-04-15T04:10:09.928Z,12.70
2023-04-15T04:12:38.425Z,12.80
2023-04-15T04:15:09.618Z,12.70
2023-04-15T04:17:38.498Z,12.70
2023-04-15T04:20:08.342Z,12.70
2023-04-15T04:22:39.606Z,12.70
2023-04-15T04:25:09.071Z,12.70
2023-04-15T04:27:37.718Z,12.70
2023-04-15T04:30:09.462Z,12.70
2023-04-15T04:32:38.259Z,12.70
2023-04-15T04:35:07.287Z,12.70
2023-04-15T04:37:35.831Z,12.70
2023-04-15T04:40:05.019Z,12.70
2023-04-15T04:42:33.651Z,12.70
2023-04-15T04:45:02.527Z,12.70
2023-04-15T04:47:32.851Z,12.60
2023-04-15T04:50:01.642Z,12.60
2023-04-15T04:52:30.202Z,12.60
2023-04-15T04:54:58.768Z,12.60
2023-04-15T04:57:27.387Z,12.60
2023-04-15T04:59:56.196Z,12.60
2023-04-15T05:02:27.263Z,12.60
2023-04-15T05:04:57.496Z,12.60
2023-04-15T05:07:26.063Z,12.60
2023-04-15T05:09:54.672Z,12.60
2023-04-15T05:12:23.495Z,12.60
2023-04-15T05:14:52.060Z,12.60
2023-04-15T05:17:20.837Z,12.60
2023-04-15T05:19:49.474Z,12.60
2023-04-15T05:22:19.524Z,12.60
2023-04-15T05:24:48.196Z,12.60
2023-04-15T05:27:16.708Z,12.60
2023-04-15T05:29:45.171Z,12.60
2023-04-15T05:32:13.698Z,12.50
2023-04-15T05:34:42.269Z,12.50
2023-04-15T05:37:10.722Z,12.50
2023-04-15T05:39:40.937Z,12.50
2023-04-15T05:42:09.658Z,12.50
2023-04-15T05:44:38.238Z,12.50
2023-04-15T05:47:08.083Z,12.50
2023-04-15T05:49:36.564Z,12.50
2023-04-15T05:52:05.146Z,12.50
2023-04-15T05:54:33.624Z,12.50
2023-04-15T05:57:04.080Z,12.50
2023-04-15T05:59:32.961Z,12.50
2023-04-15T06:02:01.535Z,12.50
2023-04-15T06:04:30.558Z,12.50
2023-04-15T06:06:59.232Z,12.50
2023-04-15T06:09:28.979Z,12.50
2023-04-15T06:11:58.331Z,12.50
2023-04-15T06:14:28.246Z,12.50
2023-04-15T06:16:56.948Z,12.50
2023-04-15T06:19:26.224Z,12.50
2023-04-15T06:21:54.841Z,12.50
2023-04-15T06:24:23.665Z,12.50
2023-04-15T06:26:52.150Z,12.50
2023-04-15T06:29:20.570Z,12.50
2023-04-15T06:31:50.742Z,12.40
2023-04-15T06:34:19.456Z,12.40
2023-04-15T06:36:48.281Z,12.50
2023-04-15T06:39:17.183Z,12.20
2023-04-15T06:41:45.810Z,12.10
2023-04-15T06:44:14.320Z,12.10
2023-04-15T06:46:42.943Z,12.10
2023-04-15T06:49:12.841Z,12.20
2023-04-15T06:51:43.856Z,12.20
2023-04-15T06:54:12.277Z,12.20
2023-04-15T06:56:44.700Z,12.30
2023-04-15T06:59:14.360Z,12.30
2023-04-15T07:01:42.984Z,12.30
2023-04-15T07:04:13.575Z,12.30
2023-04-15T07:06:42.498Z,12.40
2023-04-15T07:09:11.203Z,12.30
2023-04-15T07:11:39.781Z,12.30
2023-04-15T07:14:08.483Z,12.30
2023-04-15T07:16:37.242Z,12.30
2023-04-15T07:19:05.919Z,12.30
2023-04-15T07:21:35.940Z,12.40
2023-04-15T07:24:04.684Z,12.40
2023-04-15T07:26:36.535Z,12.50
2023-04-15T07:29:05.144Z,12.50
2023-04-15T07:31:33.909Z,12.50
2023-04-15T07:34:02.773Z,12.50
2023-04-15T07:36:31.344Z,12.50
2023-04-15T07:39:02.265Z,12.40
2023-04-15T07:41:31.627Z,12.40
2023-04-15T07:44:00.527Z,12.30
2023-04-15T07:46:29.417Z,12.20
2023-04-15T07:48:58.045Z,12.10
2023-04-15T07:51:26.924Z,12.20
2023-04-15T07:53:55.655Z,12.20
2023-04-15T07:56:26.667Z,12.20
2023-04-15T07:58:55.282Z,12.20
2023-04-15T08:01:24.201Z,12.30
2023-04-15T08:03:53.306Z,12.30
2023-04-15T08:06:22.238Z,12.30
2023-04-15T08:08:50.975Z,12.30
2023-04-15T08:11:23.347Z,12.30
2023-04-15T08:13:53.930Z,12.40
2023-04-15T08:16:24.918Z,12.30
2023-04-15T08:18:55.245Z,12.30
2023-04-15T08:21:24.255Z,12.30
2023-04-15T08:23:54.668Z,12.30
2023-04-15T08:26:23.432Z,12.30
2023-04-15T08:28:53.586Z,12.30
2023-04-15T08:31:22.399Z,12.30
2023-04-15T08:33:52.741Z,12.30
2023-04-15T08:36:21.697Z,12.30
2023-04-15T08:38:50.500Z,12.30
2023-04-15T08:41:24.187Z,12.30
2023-04-15T08:43:59.783Z,12.30
2023-04-15T08:46:29.139Z,12.40
2023-04-15T08:48:59.622Z,12.30
2023-04-15T08:51:30.100Z,12.30
2023-04-15T08:53:58.870Z,12.30
2023-04-15T08:56:28.016Z,12.40
2023-04-15T08:58:58.984Z,12.40
2023-04-15T09:03:58.418Z,12.60
2023-04-15T09:06:27.268Z,12.70
2023-04-15T09:08:56.354Z,12.70
2023-04-15T09:11:25.193Z,12.80
2023-04-15T09:13:54.276Z,12.80
2023-04-15T09:16:24.640Z,12.80
2023-04-15T09:18:53.260Z,12.80
2023-04-15T09:21:23.669Z,12.90
2023-04-15T09:24:00.185Z,12.80
2023-04-15T09:26:36.318Z,12.90
2023-04-15T09:29:08.011Z,12.90
2023-04-15T09:31:38.069Z,12.90
2023-04-15T09:34:07.281Z,12.90
2023-04-15T09:36:54.276Z,13.00
2023-04-15T09:39:23.185Z,13.00
2023-04-15T09:42:07.973Z,13.00
2023-04-15T09:44:36.784Z,13.00
2023-04-15T09:47:07.176Z,13.00
2023-04-15T09:49:36.323Z,13.00
2023-04-15T09:52:06.510Z,13.00
2023-04-15T09:54:39.908Z,13.00
2023-04-15T09:57:10.306Z,13.00
2023-04-15T09:59:39.181Z,13.00
2023-04-15T10:02:09.435Z,13.00
2023-04-15T10:04:52.605Z,13.00
2023-04-15T10:07:28.428Z,13.00
2023-04-15T10:09:58.375Z,13.00
2023-04-15T10:12:28.966Z,12.90
2023-04-15T10:15:00.095Z,12.90
2023-04-15T10:17:33.811Z,12.90
2023-04-15T10:20:03.925Z,12.90
2023-04-15T10:22:32.970Z,12.90
2023-04-15T10:25:01.972Z,13.00
2023-04-15T10:27:31.103Z,13.00
2023-04-15T10:30:03.775Z,13.00
2023-04-15T10:32:34.439Z,13.00
2023-04-15T10:35:04.335Z,13.00
2023-04-15T10:37:37.786Z,13.00
2023-04-15T10:40:31.879Z,13.00
2023-04-15T10:43:02.304Z,13.10
2023-04-15T10:45:35.524Z,13.10
2023-04-15T10:48:08.203Z,13.10
2023-04-15T10:50:39.535Z,13.10
2023-04-15T10:53:12.000Z,13.10
2023-04-15T10:55:40.619Z,13.10
2023-04-15T10:58:11.622Z,13.10
2023-04-15T11:00:40.234Z,13.10
2023-04-15T11:03:10.828Z,13.10
2023-04-15T11:05:53.490Z,13.10
2023-04-15T11:08:42.467Z,13.10
2023-04-15T11:11:11.030Z,13.10
2023-04-15T11:13:49.604Z,13.20
2023-04-15T11:16:18.662Z,13.20
2023-04-15T11:18:56.964Z,13.10
2023-04-15T11:21:28.276Z,13.10
2023-04-15T11:23:56.947Z,13.10
2023-04-15T11:26:28.337Z,13.10
2023-04-15T11:28:57.102Z,13.10
2023-04-15T11:31:29.593Z,13.10
2023-04-15T11:34:02.126Z,13.10
2023-04-15T11:36:32.754Z,13.10
2023-04-15T11:39:01.982Z,13.10
2023-04-15T11:41:30.781Z,13.10
2023-04-15T11:43:59.420Z,13.10
2023-04-15T11:46:32.033Z,13.10
2023-04-15T11:49:02.520Z,13.10
2023-04-15T11:51:34.385Z,13.10
2023-04-15T11:54:04.033Z,13.10
2023-04-15T11:56:33.027Z,13.20
2023-04-15T11:59:02.140Z,13.20
2023-04-15T12:01:35.305Z,13.20
2023-04-15T12:04:13.029Z,13.20
2023-04-15T12:06:41.919Z,13.20
2023-04-15T12:09:12.417Z,13.20
2023-04-15T12:11:43.611Z,13.20
2023-04-15T12:14:14.817Z,13.20
2023-04-15T12:16:49.022Z,13.20
2023-04-15T12:19:25.405Z,13.20
2023-04-15T12:22:00.203Z,13.10
2023-04-15T12:24:32.067Z,13.10
2023-04-15T12:27:04.232Z,13.10
2023-04-15T12:29:33.402Z,13.10
2023-04-15T12:32:07.813Z,13.00
2023-04-15T12:34:39.680Z,13.00
2023-04-15T12:37:10.720Z,13.00
2023-04-15T12:39:40.661Z,13.00
2023-04-15T12:42:09.855Z,13.00
2023-04-15T12:44:39.338Z,13.00
2023-04-15T12:47:09.420Z,13.00
2023-04-15T12:49:41.177Z,13.00
2023-04-15T12:52:10.116Z,13.00
2023-04-15T12:54:38.590Z,13.00
2023-04-15T12:57:07.781Z,13.00
2023-04-15T12:59:36.667Z,13.00
2023-04-15T13:02:05.682Z,13.00
2023-04-15T13:04:34.466Z,13.00
2023-04-15T13:07:04.659Z,13.10
2023-04-15T13:09:33.350Z,13.00
2023-04-15T13:12:03.125Z,13.10
2023-04-15T13:14:31.669Z,13.00
2023-04-15T13:17:01.606Z,13.00
2023-04-15T13:19:30.168Z,13.00
2023-04-15T13:21:58.754Z,13.00
2023-04-15T13:24:28.769Z,13.00
2023-04-15T13:26:59.194Z,13.00
2023-04-15T13:29:27.780Z,13.00
2023-04-15T13:31:57.372Z,13.00
2023-04-15T13:34:26.094Z,13.00
2023-04-15T13:36:56.347Z,13.00
2023-04-15T13:39:24.905Z,13.00
2023-04-15T13:41:54.855Z,12.90
2023-04-15T13:44:26.682Z,12.90
2023-04-15T13:46:55.393Z,13.00
2023-04-15T13:49:23.896Z,13.00
2023-04-15T13:51:52.939Z,13.10
2023-04-15T13:54:21.475Z,13.10
2023-04-15T13:56:50.542Z,13.10
2023-04-15T13:59:20.567Z,13.00
2023-04-15T14:01:49.321Z,13.00
2023-04-15T14:04:18.124Z,13.00
2023-04-15T14:06:47.183Z,13.00
2023-04-15T14:09:16.346Z,13.00
2023-04-15T14:11:44.955Z,13.00
2023-04-15T14:14:15.250Z,13.00
2023-04-15T14:16:46.255Z,13.10
2023-04-15T14:19:14.846Z,13.10
2023-04-15T14:21:43.464Z,13.10
2023-04-15T14:24:21.095Z,13.10
2023-04-15T14:26:50.030Z,13.10
2023-04-15T14:29:18.750Z,13.00
2023-04-15T14:32:04.447Z,13.00
2023-04-15T14:34:37.524Z,13.00
2023-04-15T14:37:06.148Z,13.00
2023-04-15T14:39:34.903Z,13.00
2023-04-15T14:42:03.658Z,13.00
2023-04-15T14:44:32.438Z,13.00
2023-04-15T14:47:02.507Z,13.00
2023-04-15T14:49:31.237Z,13.00
2023-04-15T14:51:59.769Z,13.00
2023-04-15T14:54:28.382Z,13.00
2023-04-15T14:56:57.355Z,13.00
2023-04-15T14:59:26.213Z,13.00
2023-04-15T15:01:54.945Z,13.00
2023-04-15T15:04:25.071Z,13.00
2023-04-15T15:06:53.843Z,13.00
2023-04-15T15:09:23.808Z,13.10
2023-04-15T15:11:52.553Z,13.10
2023-04-15T15:14:22.333Z,13.10
2023-04-15T15:16:51.433Z,13.10
2023-04-15T15:19:19.978Z,13.10
2023-04-15T15:21:50.030Z,13.10
2023-04-15T15:24:19.072Z,13.10
2023-04-15T15:26:47.972Z,13.10
2023-04-15T15:29:16.598Z,13.10
2023-04-15T15:31:45.212Z,13.10
2023-04-15T15:34:15.466Z,13.10
2023-04-15T15:36:44.242Z,13.10
2023-04-15T15:39:14.147Z,13.10
2023-04-15T15:41:42.687Z,13.10
2023-04-15T15:44:11.535Z,13.10
2023-04-15T15:46:40.169Z,13.10
2023-04-15T15:49:08.900Z,13.10
2023-04-15T15:51:37.472Z,13.10
2023-04-15T15:54:06.211Z,13.10
2023-04-15T15:56:38.556Z,13.10
2023-04-15T15:59:07.308Z,13.10
2023-04-15T16:01:36.227Z,13.10
2023-04-15T16:04:04.860Z,13.10
2023-04-15T16:06:34.974Z,13.10
2023-04-15T16:09:04.148Z,13.10
2023-04-15T16:11:32.986Z,13.10
2023-04-15T16:14:03.023Z,13.10
2023-04-15T16:16:31.882Z,13.10
2023-04-15T16:19:00.526Z,13.10
2023-04-15T16:21:29.357Z,13.10
2023-04-15T16:23:58.027Z,13.20
2023-04-15T16:26:26.558Z,13.10
2023-04-15T16:28:55.495Z,13.10
2023-04-15T16:31:25.609Z,13.10
2023-04-15T16:33:54.263Z,13.10
2023-04-15T16:36:22.812Z,13.10
2023-04-15T16:38:52.037Z,13.10
2023-04-15T16:41:21.008Z,13.10
2023-04-15T16:43:49.596Z,13.10
2023-04-15T16:46:18.224Z,13.10
2023-04-15T16:48:48.255Z,13.10
2023-04-15T16:51:16.922Z,13.10
2023-04-15T16:53:45.623Z,13.10
2023-04-15T16:56:14.225Z,13.10
2023-04-15T16:58:43.450Z,13.20
2023-04-15T17:01:12.820Z,13.20
2023-04-15T17:03:42.090Z,13.20
2023-04-15T17:06:12.921Z,13.10
2023-04-15T17:08:41.659Z,13.10
2023-04-15T17:11:10.340Z,13.10
2023-04-15T17:13:39.024Z,13.10
2023-04-15T17:16:07.954Z,13.10
2023-04-15T17:18:36.606Z,13.10
2023-04-15T17:21:06.027Z,13.10
2023-04-15T17:23:36.247Z,13.10
2023-04-15T17:26:04.935Z,13.10
2023-04-15T17:28:33.716Z,13.10
2023-04-15T17:31:02.536Z,13.10
2023-04-15T17:34:01.059Z,13.10
2023-04-15T17:36:20.323Z,13.10
2023-04-15T17:38:51.058Z,13.10
2023-04-15T17:41:19.732Z,13.10
2023-04-15T17:43:50.585Z,13.20
2023-04-15T17:46:20.315Z,13.20
2023-04-15T17:48:49.601Z,13.20
2023-04-15T17:51:18.525Z,13.10
2023-04-15T17:53:47.279Z,13.10
2023-04-15T17:56:17.583Z,13.10
2023-04-15T17:58:46.201Z,13.20
2023-04-15T18:01:14.728Z,13.10
2023-04-15T18:03:43.864Z,13.10
2023-04-15T18:06:13.124Z,13.10
2023-04-15T18:08:41.922Z,13.10
2023-04-15T18:11:12.189Z,13.10
2023-04-15T18:13:43.578Z,13.10
2023-04-15T18:16:12.315Z,13.10
2023-04-15T18:18:41.415Z,13.10
2023-04-15T18:21:11.565Z,13.10
2023-04-15T18:23:41.710Z,13.10
2023-04-15T18:26:10.302Z,13.10
2023-04-15T18:28:39.904Z,13.10
2023-04-15T18:31:09.997Z,13.10
2023-04-15T18:33:38.643Z,13.10
2023-04-15T18:36:07.419Z,13.10
2023-04-15T18:38:36.035Z,13.10
2023-04-15T18:41:05.517Z,13.10
2023-04-15T18:43:34.142Z,13.10
2023-04-15T18:46:03.986Z,13.10
2023-04-15T18:48:33.893Z,13.10
2023-04-15T18:51:02.503Z,13.10
2023-04-15T18:53:31.161Z,13.10
2023-04-15T18:56:01.791Z,13.10
2023-04-15T18:59:08.551Z,13.10
2023-04-15T19:01:19.300Z,13.10
2023-04-15T19:03:50.183Z,13.10
2023-04-15T19:06:18.706Z,13.10
2023-04-15T19:08:47.293Z,13.10
2023-04-15T19:11:15.925Z,13.10
2023-04-15T19:13:44.484Z,13.10
2023-04-15T19:16:13.068Z,13.10
2023-04-15T19:18:41.552Z,13.10
2023-04-15T19:21:12.266Z,13.10
2023-04-15T19:23:42.938Z,13.10
2023-04-15T19:26:11.583Z,13.10
2023-04-15T19:28:40.215Z,13.10
2023-04-15T19:31:08.985Z,13.10
2023-04-15T19:33:37.562Z,13.10
2023-04-15T19:36:07.631Z,13.10
2023-04-15T19:38:37.815Z,13.10
2023-04-15T19:41:06.385Z,13.10
2023-04-15T19:43:34.999Z,13.10
2023-04-15T19:46:03.757Z,13.10
2023-04-15T19:48:32.320Z,13.10
2023-04-15T19:51:01.000Z,13.10
2023-04-15T19:53:31.131Z,13.10
2023-04-15T19:56:01.110Z,13.10
2023-04-15T19:58:29.624Z,13.10
2023-04-15T20:00:58.594Z,13.10
2023-04-15T20:03:27.187Z,13.10
2023-04-15T20:05:55.834Z,13.10
2023-04-15T20:08:24.321Z,13.10
2023-04-15T20:10:52.842Z,13.10
2023-04-15T20:13:22.754Z,13.10
2023-04-15T20:15:51.337Z,13.10
2023-04-15T20:18:19.894Z,13.10
2023-04-15T20:20:48.704Z,13.10
2023-04-15T20:23:17.215Z,13.10
2023-04-15T20:25:45.930Z,13.10
2023-04-15T20:28:15.960Z,13.10
2023-04-15T20:30:46.014Z,13.10
2023-04-15T20:33:14.933Z,13.10
2023-04-15T20:35:43.449Z,13.10
2023-04-15T20:38:16.399Z,13.10
2023-04-15T20:40:44.949Z,13.10
2023-04-15T20:43:13.574Z,13.10
2023-04-15T20:45:42.143Z,13.10
2023-04-15T20:48:12.114Z,13.10
2023-04-15T20:50:40.823Z,13.10
2023-04-15T20:53:09.447Z,13.10
2023-04-15T20:55:37.954Z,13.10
2023-04-15T20:58:09.420Z,13.10
2023-04-15T21:00:38.882Z,13.10
2023-04-15T21:03:12.354Z,13.10
2023-04-15T21:05:41.090Z,13.10
2023-04-15T21:08:09.558Z,13.10
2023-04-15T21:10:38.072Z,13.10
2023-04-15T21:13:07.885Z,13.10
2023-04-15T21:15:36.493Z,13.10
2023-04-15T21:18:05.057Z,13.10
2023-04-15T21:20:35.002Z,13.10
2023-04-15T21:23:03.434Z,13.10
2023-04-15T21:25:32.105Z,13.10
2023-04-15T21:28:00.887Z,13.10
2023-04-15T21:30:29.480Z,13.10
2023-04-15T21:32:58.095Z,13.10
2023-04-15T21:35:27.151Z,13.10
2023-04-15T21:37:57.111Z,13.10
2023-04-15T21:40:26.591Z,13.10
2023-04-15T21:42:55.168Z,13.10
2023-04-15T21:45:23.708Z,13.10
2023-04-15T21:48:00.802Z,13.10
2023-04-15T21:50:37.530Z,13.10
2023-04-15T21:53:09.649Z,13.10
2023-04-15T21:55:38.134Z,13.10
2023-04-15T21:58:06.699Z,13.10
2023-04-15T22:00:35.305Z,13.10
2023-04-15T22:03:04.097Z,13.10
2023-04-15T22:05:32.739Z,13.10
2023-04-15T22:08:04.629Z,13.10
2023-04-15T22:10:34.647Z,13.10
2023-04-15T22:13:07.169Z,13.10
2023-04-15T22:15:36.205Z,13.10
2023-04-15T22:18:05.230Z,13.10
2023-04-15T22:20:33.912Z,13.10
2023-04-15T22:23:03.958Z,13.10
2023-04-15T22:25:32.500Z,13.10
2023-04-15T22:28:03.225Z,13.00
2023-04-15T22:30:31.811Z,13.00
2023-04-15T22:33:00.702Z,13.00
2023-04-15T22:35:29.395Z,13.00
2023-04-15T22:37:58.020Z,13.10
2023-04-15T22:40:27.134Z,13.10
2023-04-15T22:42:55.769Z,13.00
2023-04-15T22:45:25.742Z,13.00
2023-04-15T22:47:54.416Z,13.00
2023-04-15T22:50:23.281Z,13.00
2023-04-15T22:52:52.534Z,13.10
2023-04-15T22:55:21.054Z,13.00
2023-04-15T22:57:49.667Z,13.00
2023-04-15T23:00:18.435Z,13.00
2023-04-15T23:02:48.343Z,13.00
2023-04-15T23:05:16.941Z,13.00
2023-04-15T23:07:45.729Z,13.00
2023-04-15T23:10:14.300Z,13.00
2023-04-15T23:12:42.872Z,13.00
2023-04-15T23:15:12.197Z,13.00
2023-04-15T23:17:41.041Z,13.00
2023-04-15T23:20:12.565Z,13.00
2023-04-15T23:22:42.032Z,13.00
2023-04-15T23:25:11.245Z,13.00
2023-04-15T23:27:40.001Z,13.00
2023-04-15T23:30:09.951Z,13.00
2023-04-15T23:32:38.706Z,13.00
2023-04-15T23:35:07.781Z,13.00
2023-04-15T23:37:37.675Z,13.00
2023-04-15T23:40:07.622Z,13.00
2023-04-15T23:42:36.300Z,13.00
2023-04-15T23:45:06.044Z,13.00
2023-04-15T23:47:34.619Z,13.00
2023-04-15T23:50:03.600Z,13.00
2023-04-15T23:52:32.155Z,13.00
2023-04-15T23:55:02.235Z,13.00
2023-04-15T23:57:30.859Z,13.00
